Airfield :
LOGIN :

Register | Disclaimer

   EN    FR    IT 

 










Legend :    VFR   Marginal VFR   IFR   Intensive IFR   Very Intensive IFR
Visi :
Ceiling :
>= 8 km
>= 3000ft
5 to 8 km
1000 to 3000 ft
1500m to 5 km
500 to 1000 ft
800 to 1500m
200 to 500 ft
< 800m
< 200 ft
Symbols :   Thunderstorms  Fog  Heavy snow  Heavy precipitations  Wind > 20 kt
SIGMETs :     Misc.  Thunderstorms  Icing  Turbulence  Mountain Waves  Volcanic Ashes







- Airport Elevation : 265 ft
- IATA code : BJY


LYBT - Batajnica Air Base

CURRENT METAR :
  • 121700Z 34003KT 9999 BKN033 03/01 Q1020 NOSIG

EXPIRED METARs :
  • 121630Z 35003KT 9999 BKN033 03/01 Q1020 NOSIG
  • 121600Z 34004KT 9999 BKN040 03/01 Q1020 NOSIG
  • 121530Z 34004KT 9999 BKN040 03/01 Q1020 NOSIG
  • 121500Z 33004KT 9999 BKN040 04/01 Q1020 NOSIG
  • 121430Z 30003KT CAVOK 04/M00 Q1019 NOSIG

TAF TAF LYBT
Valid from the 12 at 12:00 until the 13 at 12:00 UTC


121100Z 1212/1312 24006KT 9999 BKN040 TX05/1212Z TNM03/1306Z
BECMG 1222/1224 3000 BR
TEMPO 1303/1307 0400 FZFG
BECMG 1307/1309 8000 NSW
No reported NOTAMs for that airfield.



MET'MAP, your aeronautical weather chart ! - Copyright ORBIFLY December 2007 - Disclaimer

ORBIFLY MET'MAP TEAM :

Programming & Development : Alexandra Zaïnal
Concept & Development : Baudouin d'Aumeries
Co-Development & Prog : Marc-Olivier Méhu
Technical & hardware support : Manuel Goepfert

Contact : metmap@orbifly.com




SOURCES & CREDITS :

   NOAA